首页
METAR-TAF:

METAR-TAF

机场 :

Val-d'Or, 魁北克, 加拿大

纬度: 48-04N, 经度: 077-47W, 海拔: 337米

当前天气观测

该预报发布于22分钟前的17:00 UTC
风速6节,风向,在东北东转东南之间变化
温度 6°C
湿度 93%
气压 1018 hPa
能見度: 24.1公里
阴天层高于1000英尺

METAR: CYVO 011700Z 09006KT 050V120 15SM OVC010 06/05 A3005 RMK SC8 SLP192

时间: 13:22 (17:22 UTC)

预报

该预报发布于3小时和23分钟前的13:59 UTC
预报有效从01日的 13点(UTC)到 01日的 24点(UTC)
风速3节,风向多变
能見度: 10公里
少量云层高于600英尺
阴天层高于3000英尺
短暂存在
从 01日的 13点(UTC)到 01日的 21点(UTC)
能見度: 4.8公里
多云层高于600英尺
多云层高于2000英尺
小阵雨, 轻雾
从 01日的 2100点(UTC)
风速3节,风向多变
能見度: 10公里
少量云层高于3000英尺
多云层高于20000英尺

TAF: CYVO 011359Z 0113/0124 VRB03KT P6SM FEW006 OVC030 TEMPO 0113/0121 3SM -SHRA BR BKN006 BKN020 FM012100 VRB03KT P6SM FEW030 BKN200 RMK NXT FCST BY 011800Z

超过4000个机场的气象观测和天气预报(METAR&TAF报告)。

可查询的气象台以黄色和红色小点在地图上表示。

将鼠标移到小点上方,可查看气象台名称。

然后点击查看天气观测和预报。

如需切换地图:点击带黑十字的绿色按钮放大地图;点击带横线的绿色按钮缩小地图;或者点击绿色箭头查看邻近地区的地图。


METAR-TAF: